sensor_id;sensor_type;location;lat;lon;timestamp;pressure;altitude;pressure_sealevel;temperature;humidity
72921;BME280;61064;51.654;5.476;2024-03-23T00:55:12;101085.13;;;7.59;100.00
72921;BME280;61064;51.654;5.476;2024-03-23T00:57:37;101093.13;;;7.60;100.00
72921;BME280;61064;51.654;5.476;2024-03-23T01:00:03;101090.28;;;7.52;100.00
72921;BME280;61064;51.654;5.476;2024-03-23T01:02:31;101095.59;;;7.52;100.00
72921;BME280;61064;51.654;5.476;2024-03-23T01:04:57;101108.97;;;7.59;100.00
72921;BME280;61064;51.654;5.476;2024-03-23T01:07:22;101116.91;;;7.57;100.00
72921;BME280;61064;51.654;5.476;2024-03-23T01:09:47;101113.25;;;7.52;100.00
72921;BME280;61064;51.654;5.476;2024-03-23T01:12:13;101119.50;;;7.56;100.00
72921;BME280;61064;51.654;5.476;2024-03-23T01:14:38;101107.97;;;7.52;100.00
72921;BME280;61064;51.654;5.476;2024-03-23T01:17:03;101111.47;;;7.52;100.00
72921;BME280;61064;51.654;5.476;2024-03-23T01:19:32;101093.69;;;7.45;100.00
72921;BME280;61064;51.654;5.476;2024-03-23T01:21:57;101088.44;;;7.48;100.00
72921;BME280;61064;51.654;5.476;2024-03-23T01:24:22;101087.53;;;7.46;100.00
72921;BME280;61064;51.654;5.476;2024-03-23T01:26:48;101087.44;;;7.43;100.00
72921;BME280;61064;51.654;5.476;2024-03-23T01:29:13;101069.63;;;7.35;100.00
72921;BME280;61064;51.654;5.476;2024-03-23T01:31:38;101081.16;;;7.38;100.00
72921;BME280;61064;51.654;5.476;2024-03-23T01:34:04;101073.97;;;7.33;100.00
72921;BME280;61064;51.654;5.476;2024-03-23T01:36:32;101081.88;;;7.31;100.00
72921;BME280;61064;51.654;5.476;2024-03-23T01:38:58;101056.91;;;7.20;100.00
72921;BME280;61064;51.654;5.476;2024-03-23T01:41:24;101057.00;;;7.23;100.00
72921;BME280;61064;51.654;5.476;2024-03-23T01:43:50;101036.53;;;7.16;100.00
72921;BME280;61064;51.654;5.476;2024-03-23T01:46:16;101050.84;;;7.24;100.00
72921;BME280;61064;51.654;5.476;2024-03-23T01:48:42;101050.72;;;7.20;100.00
72921;BME280;61064;51.654;5.476;2024-03-23T01:51:07;101057.00;;;7.25;100.00
72921;BME280;61064;51.654;5.476;2024-03-23T01:53:33;101056.16;;;7.26;100.00
72921;BME280;61064;51.654;5.476;2024-03-23T01:55:58;101035.66;;;7.16;100.00
72921;BME280;61064;51.654;5.476;2024-03-23T01:58:24;101033.84;;;7.15;100.00
72921;BME280;61064;51.654;5.476;2024-03-23T02:00:49;101044.56;;;7.21;100.00
72921;BME280;61064;51.654;5.476;2024-03-23T02:03:25;101041.03;;;7.20;100.00
72921;BME280;61064;51.654;5.476;2024-03-23T02:05:51;101048.22;;;7.26;100.00
72921;BME280;61064;51.654;5.476;2024-03-23T02:08:18;101050.91;;;7.27;100.00
72921;BME280;61064;51.654;5.476;2024-03-23T02:10:43;101049.13;;;7.26;100.00
72921;BME280;61064;51.654;5.476;2024-03-23T02:13:09;101049.22;;;7.29;100.00
72921;BME280;61064;51.654;5.476;2024-03-23T02:15:34;101042.91;;;7.24;100.00
72921;BME280;61064;51.654;5.476;2024-03-23T02:18:00;101049.22;;;7.31;100.00
72921;BME280;61064;51.654;5.476;2024-03-23T02:20:25;101046.47;;;7.26;100.00
72921;BME280;61064;51.654;5.476;2024-03-23T02:22:53;101044.78;;;7.28;100.00
72921;BME280;61064;51.654;5.476;2024-03-23T02:25:18;101040.31;;;7.27;100.00
72921;BME280;61064;51.654;5.476;2024-03-23T02:27:43;101035.03;;;7.27;100.00
72921;BME280;61064;51.654;5.476;2024-03-23T02:30:09;101028.78;;;7.24;100.00
72921;BME280;61064;51.654;5.476;2024-03-23T02:32:37;101012.78;;;7.19;100.00
72921;BME280;61064;51.654;5.476;2024-03-23T02:35:02;101031.44;;;7.25;100.00
72921;BME280;61064;51.654;5.476;2024-03-23T02:37:27;101025.25;;;7.23;100.00
72921;BME280;61064;51.654;5.476;2024-03-23T02:39:53;101031.41;;;7.22;100.00
72921;BME280;61064;51.654;5.476;2024-03-23T02:42:18;101024.22;;;7.17;100.00
72921;BME280;61064;51.654;5.476;2024-03-23T02:44:44;101035.75;;;7.20;100.00
72921;BME280;61064;51.654;5.476;2024-03-23T02:47:10;101037.50;;;7.20;100.00
72921;BME280;61064;51.654;5.476;2024-03-23T02:49:35;101015.31;;;7.13;100.00
72921;BME280;61064;51.654;5.476;2024-03-23T02:52:01;101032.19;;;7.20;100.00
72921;BME280;61064;51.654;5.476;2024-03-23T02:54:26;101028.59;;;7.16;100.00
72921;BME280;61064;51.654;5.476;2024-03-23T02:56:51;101035.69;;;7.17;100.00
72921;BME280;61064;51.654;5.476;2024-03-23T02:59:17;101019.63;;;7.09;100.00
72921;BME280;61064;51.654;5.476;2024-03-23T03:01:42;101028.47;;;7.10;100.00
72921;BME280;61064;51.654;5.476;2024-03-23T03:04:07;101031.16;;;7.12;100.00
72921;BME280;61064;51.654;5.476;2024-03-23T03:06:33;101033.78;;;7.12;100.00
72921;BME280;61064;51.654;5.476;2024-03-23T03:08:58;101027.66;;;7.13;100.00
72921;BME280;61064;51.654;5.476;2024-03-23T03:11:24;101016.81;;;7.02;100.00
72921;BME280;61064;51.654;5.476;2024-03-23T03:13:49;101030.31;;;7.13;100.00
72921;BME280;61064;51.654;5.476;2024-03-23T03:16:15;101036.50;;;7.13;100.00
72921;BME280;61064;51.654;5.476;2024-03-23T03:18:40;101021.31;;;7.06;100.00
72921;BME280;61064;51.654;5.476;2024-03-23T03:21:07;101024.78;;;7.03;100.00
72921;BME280;61064;51.654;5.476;2024-03-23T03:23:37;101022.97;;;7.01;100.00
72921;BME280;61064;51.654;5.476;2024-03-23T03:26:03;101041.66;;;7.08;100.00
72921;BME280;61064;51.654;5.476;2024-03-23T03:28:28;101043.38;;;7.08;100.00
72921;BME280;61064;51.654;5.476;2024-03-23T03:30:56;101028.25;;;7.01;100.00
72921;BME280;61064;51.654;5.476;2024-03-23T03:33:22;101014.00;;;6.94;100.00
72921;BME280;61064;51.654;5.476;2024-03-23T03:35:47;101018.34;;;6.92;100.00
72921;BME280;61064;51.654;5.476;2024-03-23T03:38:13;101007.75;;;6.91;100.00
72921;BME280;61064;51.654;5.476;2024-03-23T03:40:38;101012.94;;;6.88;100.00
72921;BME280;61064;51.654;5.476;2024-03-23T03:43:04;101026.28;;;6.92;100.00
72921;BME280;61064;51.654;5.476;2024-03-23T03:45:29;101012.03;;;6.87;100.00
72921;BME280;61064;51.654;5.476;2024-03-23T03:47:54;101004.75;;;6.77;100.00
72921;BME280;61064;51.654;5.476;2024-03-23T03:50:21;101023.47;;;6.86;100.00
72921;BME280;61064;51.654;5.476;2024-03-23T03:52:47;101025.13;;;6.81;100.00
72921;BME280;61064;51.654;5.476;2024-03-23T03:55:14;101013.47;;;6.73;100.00
72921;BME280;61064;51.654;5.476;2024-03-23T03:57:39;101018.78;;;6.75;100.00
72921;BME280;61064;51.654;5.476;2024-03-23T04:00:05;101017.78;;;6.69;100.00
72921;BME280;61064;51.654;5.476;2024-03-23T04:02:31;101021.16;;;6.64;100.00
72921;BME280;61064;51.654;5.476;2024-03-23T04:04:56;101016.56;;;6.55;100.00
72921;BME280;61064;51.654;5.476;2024-03-23T04:07:22;101022.69;;;6.54;100.00
72921;BME280;61064;51.654;5.476;2024-03-23T04:09:48;101008.41;;;6.46;100.00
72921;BME280;61064;51.654;5.476;2024-03-23T04:12:14;101009.13;;;6.41;100.00
72921;BME280;61064;51.654;5.476;2024-03-23T04:14:40;101012.53;;;6.35;100.00
72921;BME280;61064;51.654;5.476;2024-03-23T04:17:08;101018.72;;;6.37;100.00
72921;BME280;61064;51.654;5.476;2024-03-23T04:19:34;101013.31;;;6.33;100.00
72921;BME280;61064;51.654;5.476;2024-03-23T04:21:59;101006.06;;;6.25;100.00
72921;BME280;61064;51.654;5.476;2024-03-23T04:24:24;101020.13;;;6.24;100.00
72921;BME280;61064;51.654;5.476;2024-03-23T04:26:52;101011.25;;;6.21;100.00
72921;BME280;61064;51.654;5.476;2024-03-23T04:29:18;101015.56;;;6.17;100.00
72921;BME280;61064;51.654;5.476;2024-03-23T04:31:43;101022.53;;;6.15;100.00
72921;BME280;61064;51.654;5.476;2024-03-23T04:34:11;101021.56;;;6.12;100.00
72921;BME280;61064;51.654;5.476;2024-03-23T04:36:36;101014.34;;;6.05;100.00
72921;BME280;61064;51.654;5.476;2024-03-23T04:39:02;100999.09;;;5.95;100.00
72921;BME280;61064;51.654;5.476;2024-03-23T04:41:28;101009.78;;;5.99;100.00
72921;BME280;61064;51.654;5.476;2024-03-23T04:43:53;101026.41;;;5.97;100.00
72921;BME280;61064;51.654;5.476;2024-03-23T04:46:21;101022.81;;;5.93;100.00
72921;BME280;61064;51.654;5.476;2024-03-23T04:48:47;101002.06;;;5.77;100.00
72921;BME280;61064;51.654;5.476;2024-03-23T04:51:22;101014.59;;;5.84;100.00
72921;BME280;61064;51.654;5.476;2024-03-23T04:53:48;101015.22;;;5.75;100.00
72921;BME280;61064;51.654;5.476;2024-03-23T04:56:16;101015.34;;;5.78;100.00
72921;BME280;61064;51.654;5.476;2024-03-23T04:58:42;101024.16;;;5.79;100.00
72921;BME280;61064;51.654;5.476;2024-03-23T05:01:09;101006.22;;;5.69;100.00
72921;BME280;61064;51.654;5.476;2024-03-23T05:03:34;101019.47;;;5.70;100.00
72921;BME280;61064;51.654;5.476;2024-03-23T05:05:59;101015.03;;;5.69;100.00
72921;BME280;61064;51.654;5.476;2024-03-23T05:08:25;101009.59;;;5.63;100.00
72921;BME280;61064;51.654;5.476;2024-03-23T05:10:51;101005.13;;;5.61;100.00
72921;BME280;61064;51.654;5.476;2024-03-23T05:13:16;101013.09;;;5.62;100.00
72921;BME280;61064;51.654;5.476;2024-03-23T05:15:42;101001.41;;;5.54;100.00
72921;BME280;61064;51.654;5.476;2024-03-23T05:18:07;100997.03;;;5.55;100.00
72921;BME280;61064;51.654;5.476;2024-03-23T05:20:33;101001.34;;;5.51;100.00
72921;BME280;61064;51.654;5.476;2024-03-23T05:22:58;101005.59;;;5.46;100.00
72921;BME280;61064;51.654;5.476;2024-03-23T05:25:24;101019.81;;;5.51;100.00
72921;BME280;61064;51.654;5.476;2024-03-23T05:27:49;100995.56;;;5.34;100.00
72921;BME280;61064;51.654;5.476;2024-03-23T05:30:15;100998.16;;;5.33;100.00
72921;BME280;61064;51.654;5.476;2024-03-23T05:32:40;101008.00;;;5.38;100.00
72921;BME280;61064;51.654;5.476;2024-03-23T05:35:10;100995.53;;;5.33;100.00
72921;BME280;61064;51.654;5.476;2024-03-23T05:37:37;101008.00;;;5.38;100.00
72921;BME280;61064;51.654;5.476;2024-03-23T05:40:03;100998.16;;;5.33;100.00
72921;BME280;61064;51.654;5.476;2024-03-23T05:42:29;101003.63;;;5.39;100.00
72921;BME280;61064;51.654;5.476;2024-03-23T05:44:54;101007.75;;;5.31;100.00
72921;BME280;61064;51.654;5.476;2024-03-23T05:47:20;101011.34;;;5.33;100.00
72921;BME280;61064;51.654;5.476;2024-03-23T05:49:48;101015.72;;;5.32;100.00
72921;BME280;61064;51.654;5.476;2024-03-23T05:52:13;101004.09;;;5.26;100.00
72921;BME280;61064;51.654;5.476;2024-03-23T05:54:39;101019.16;;;5.30;100.00
72921;BME280;61064;51.654;5.476;2024-03-23T05:57:04;101012.91;;;5.26;100.00
72921;BME280;61064;51.654;5.476;2024-03-23T05:59:32;101012.00;;;5.26;100.00
72921;BME280;61064;51.654;5.476;2024-03-23T06:01:58;101019.25;;;5.33;100.00
72921;BME280;61064;51.654;5.476;2024-03-23T06:04:23;101021.91;;;5.33;100.00
72921;BME280;61064;51.654;5.476;2024-03-23T06:06:48;101021.94;;;5.34;100.00
72921;BME280;61064;51.654;5.476;2024-03-23T06:09:14;101002.47;;;5.29;100.00
72921;BME280;61064;51.654;5.476;2024-03-23T06:11:39;101009.66;;;5.35;100.00
72921;BME280;61064;51.654;5.476;2024-03-23T06:14:04;101018.69;;;5.43;100.00
72921;BME280;61064;51.654;5.476;2024-03-23T06:16:30;101014.25;;;5.42;100.00
72921;BME280;61064;51.654;5.476;2024-03-23T06:18:57;101022.28;;;5.47;100.00
72921;BME280;61064;51.654;5.476;2024-03-23T06:21:24;101025.03;;;5.50;100.00
72921;BME280;61064;51.654;5.476;2024-03-23T06:23:51;101024.38;;;5.57;100.00
72921;BME280;61064;51.654;5.476;2024-03-23T06:26:18;101020.75;;;5.53;100.00
72921;BME280;61064;51.654;5.476;2024-03-23T06:28:47;101012.03;;;5.56;100.00
72921;BME280;61064;51.654;5.476;2024-03-23T06:31:13;101012.94;;;5.56;100.00
72921;BME280;61064;51.654;5.476;2024-03-23T06:33:38;101027.50;;;5.73;100.00
72921;BME280;61064;51.654;5.476;2024-03-23T06:36:05;101016.91;;;5.72;100.00
72921;BME280;61064;51.654;5.476;2024-03-23T06:38:30;101018.81;;;5.77;100.00
72921;BME280;61064;51.654;5.476;2024-03-23T06:40:56;101024.28;;;5.83;100.00
72921;BME280;61064;51.654;5.476;2024-03-23T06:43:21;101011.13;;;5.86;100.00
72921;BME280;61064;51.654;5.476;2024-03-23T06:45:53;101026.56;;;6.01;100.00
72921;BME280;61064;51.654;5.476;2024-03-23T06:48:19;101006.97;;;5.93;100.00
72921;BME280;61064;51.654;5.476;2024-03-23T06:50:45;101024.06;;;6.06;100.00
72921;BME280;61064;51.654;5.476;2024-03-23T06:53:12;101013.19;;;5.95;100.00
72921;BME280;61064;51.654;5.476;2024-03-23T06:55:37;101034.66;;;6.07;100.00
72921;BME280;61064;51.654;5.476;2024-03-23T06:58:03;101030.25;;;6.08;100.00
72921;BME280;61064;51.654;5.476;2024-03-23T07:00:29;101027.75;;;6.12;100.00
72921;BME280;61064;51.654;5.476;2024-03-23T07:02:54;101019.69;;;6.08;100.00
72921;BME280;61064;51.654;5.476;2024-03-23T07:05:20;101023.38;;;6.14;100.00
72921;BME280;61064;51.654;5.476;2024-03-23T07:07:45;101017.25;;;6.15;100.00
72921;BME280;61064;51.654;5.476;2024-03-23T07:10:11;101014.84;;;6.23;100.00
72921;BME280;61064;51.654;5.476;2024-03-23T07:12:36;101014.91;;;6.26;100.00
72921;BME280;61064;51.654;5.476;2024-03-23T07:15:02;101028.50;;;6.40;100.00
72921;BME280;61064;51.654;5.476;2024-03-23T07:17:27;101034.09;;;6.53;100.00
72921;BME280;61064;51.654;5.476;2024-03-23T07:19:53;101029.78;;;6.55;100.00
72921;BME280;61064;51.654;5.476;2024-03-23T07:22:18;101025.44;;;6.59;100.00
72921;BME280;61064;51.654;5.476;2024-03-23T07:24:44;101028.13;;;6.60;100.00
72921;BME280;61064;51.654;5.476;2024-03-23T07:27:09;101022.84;;;6.60;100.00
72921;BME280;61064;51.654;5.476;2024-03-23T07:29:35;101015.72;;;6.56;100.00
72921;BME280;61064;51.654;5.476;2024-03-23T07:32:01;101024.59;;;6.60;100.00
72921;BME280;61064;51.654;5.476;2024-03-23T07:34:27;101002.56;;;6.59;100.00
72921;BME280;61064;51.654;5.476;2024-03-23T07:36:52;101033.72;;;6.73;100.00
72921;BME280;61064;51.654;5.476;2024-03-23T07:39:18;101012.47;;;6.68;100.00
72921;BME280;61064;51.654;5.476;2024-03-23T07:41:46;101018.06;;;6.82;100.00
72921;BME280;61064;51.654;5.476;2024-03-23T07:44:12;101000.56;;;6.87;100.00
72921;BME280;61064;51.654;5.476;2024-03-23T07:46:37;101005.34;;;7.01;100.00
72921;BME280;61064;51.654;5.476;2024-03-23T07:49:04;101025.25;;;7.23;100.00
72921;BME280;61064;51.654;5.476;2024-03-23T07:51:30;101005.69;;;7.17;100.00
72921;BME280;61064;51.654;5.476;2024-03-23T07:53:55;101011.16;;;7.24;100.00
72921;BME280;61064;51.654;5.476;2024-03-23T07:56:20;101015.94;;;7.40;100.00
72921;BME280;61064;51.654;5.476;2024-03-23T07:58:47;101016.25;;;7.56;100.00
72921;BME280;61064;51.654;5.476;2024-03-23T08:01:14;101016.44;;;7.65;100.00
72921;BME280;61064;51.654;5.476;2024-03-23T08:03:43;101020.41;;;7.86;100.00
72921;BME280;61064;51.654;5.476;2024-03-23T08:06:09;101016.34;;;8.02;100.00
72921;BME280;61064;51.654;5.476;2024-03-23T08:08:35;101013.84;;;8.11;100.00
72921;BME280;61064;51.654;5.476;2024-03-23T08:11:00;101023.09;;;8.30;100.00
72921;BME280;61064;51.654;5.476;2024-03-23T08:13:26;101014.38;;;8.39;100.00
72921;BME280;61064;51.654;5.476;2024-03-23T08:15:51;101003.84;;;8.43;100.00
72921;BME280;61064;51.654;5.476;2024-03-23T08:18:17;101013.84;;;8.58;100.00
72921;BME280;61064;51.654;5.476;2024-03-23T08:20:42;101017.56;;;8.67;100.00
72921;BME280;61064;51.654;5.476;2024-03-23T08:23:08;100997.16;;;8.65;100.00
72921;BME280;61064;51.654;5.476;2024-03-23T08:25:34;101005.31;;;8.77;100.00
72921;BME280;61064;51.654;5.476;2024-03-23T08:27:59;101014.44;;;8.94;100.00
72921;BME280;61064;51.654;5.476;2024-03-23T08:30:25;101026.94;;;9.03;99.82
72921;BME280;61064;51.654;5.476;2024-03-23T08:32:51;101025.97;;;8.98;99.37
72921;BME280;61064;51.654;5.476;2024-03-23T08:35:16;101027.56;;;8.87;98.92
72921;BME280;61064;51.654;5.476;2024-03-23T08:37:41;101025.53;;;8.70;97.95
72921;BME280;61064;51.654;5.476;2024-03-23T08:40:07;101010.03;;;8.41;97.80
72921;BME280;61064;51.654;5.476;2024-03-23T08:42:33;101022.69;;;8.12;98.05
72921;BME280;61064;51.654;5.476;2024-03-23T08:44:59;101018.66;;;7.87;98.16
72921;BME280;61064;51.654;5.476;2024-03-23T08:47:24;101022.66;;;7.67;98.63
72921;BME280;61064;51.654;5.476;2024-03-23T08:49:50;101028.56;;;7.53;98.64
72921;BME280;61064;51.654;5.476;2024-03-23T08:52:15;101011.41;;;7.35;99.05
72921;BME280;61064;51.654;5.476;2024-03-23T08:54:41;101015.78;;;7.34;99.63
72921;BME280;61064;51.654;5.476;2024-03-23T08:57:09;100994.53;;;7.31;100.00
72921;BME280;61064;51.654;5.476;2024-03-23T08:59:35;101006.38;;;7.48;100.00
72921;BME280;61064;51.654;5.476;2024-03-23T09:02:02;100997.03;;;7.66;100.00
72921;BME280;61064;51.654;5.476;2024-03-23T09:04:28;100994.81;;;7.87;100.00
72921;BME280;61064;51.654;5.476;2024-03-23T09:06:53;100986.28;;;8.02;99.96
72921;BME280;61064;51.654;5.476;2024-03-23T09:09:19;100989.25;;;8.20;99.69
72921;BME280;61064;51.654;5.476;2024-03-23T09:11:45;100991.38;;;8.38;99.42
72921;BME280;61064;51.654;5.476;2024-03-23T09:14:10;101007.59;;;8.54;99.10
72921;BME280;61064;51.654;5.476;2024-03-23T09:16:36;100999.56;;;8.50;98.14
72921;BME280;61064;51.654;5.476;2024-03-23T09:19:01;100987.91;;;8.40;97.84
72921;BME280;61064;51.654;5.476;2024-03-23T09:21:27;101019.69;;;8.39;97.66
72921;BME280;61064;51.654;5.476;2024-03-23T09:23:52;101015.97;;;8.29;97.61
72921;BME280;61064;51.654;5.476;2024-03-23T09:26:18;101005.00;;;8.11;97.13
72921;BME280;61064;51.654;5.476;2024-03-23T09:28:43;100987.94;;;7.95;97.75
72921;BME280;61064;51.654;5.476;2024-03-23T09:31:09;100999.66;;;8.09;98.49
72921;BME280;61064;51.654;5.476;2024-03-23T09:33:39;100998.97;;;8.18;98.61
72921;BME280;61064;51.654;5.476;2024-03-23T09:36:05;100991.91;;;8.20;98.25
72921;BME280;61064;51.654;5.476;2024-03-23T09:38:31;101004.53;;;8.31;98.07
72921;BME280;61064;51.654;5.476;2024-03-23T09:40:57;100985.16;;;8.34;98.09
72921;BME280;61064;51.654;5.476;2024-03-23T09:43:22;100989.03;;;8.54;98.16
72921;BME280;61064;51.654;5.476;2024-03-23T09:45:49;100987.50;;;8.68;98.28
72921;BME280;61064;51.654;5.476;2024-03-23T09:48:17;100987.81;;;8.88;98.03
72921;BME280;61064;51.654;5.476;2024-03-23T09:50:44;100958.75;;;8.97;97.54
72921;BME280;61064;51.654;5.476;2024-03-23T09:53:11;100980.22;;;9.14;96.92
72921;BME280;61064;51.654;5.476;2024-03-23T09:55:38;100976.91;;;9.29;96.16
72921;BME280;61064;51.654;5.476;2024-03-23T09:58:04;100976.97;;;9.33;95.47
72921;BME280;61064;51.654;5.476;2024-03-23T10:00:33;100983.22;;;9.38;94.88
72921;BME280;61064;51.654;5.476;2024-03-23T10:02:59;100981.59;;;9.46;94.29
72921;BME280;61064;51.654;5.476;2024-03-23T10:05:28;100969.34;;;9.57;94.19
72921;BME280;61064;51.654;5.476;2024-03-23T10:07:54;100962.38;;;9.70;94.36
72921;BME280;61064;51.654;5.476;2024-03-23T10:10:20;100976.88;;;9.96;93.57
72921;BME280;61064;51.654;5.476;2024-03-23T10:12:48;100984.13;;;10.13;92.61
72921;BME280;61064;51.654;5.476;2024-03-23T10:15:24;100961.19;;;10.21;88.13
72921;BME280;61064;51.654;5.476;2024-03-23T10:17:49;100977.28;;;10.34;91.45
72921;BME280;61064;51.654;5.476;2024-03-23T10:20:24;100970.19;;;10.33;90.62
72921;BME280;61064;51.654;5.476;2024-03-23T10:22:50;100982.69;;;10.42;89.49
72921;BME280;61064;51.654;5.476;2024-03-23T10:25:23;100977.38;;;10.45;89.05
72921;BME280;61064;51.654;5.476;2024-03-23T10:27:59;100988.00;;;10.42;88.48
72921;BME280;61064;51.654;5.476;2024-03-23T10:30:28;100984.34;;;10.29;87.60
72921;BME280;61064;51.654;5.476;2024-03-23T10:33:10;100992.94;;;10.07;87.49
72921;BME280;61064;51.654;5.476;2024-03-23T10:35:37;100995.44;;;9.93;88.66
72921;BME280;61064;51.654;5.476;2024-03-23T10:38:06;100993.66;;;9.91;88.35
72921;BME280;61064;51.654;5.476;2024-03-23T10:40:34;100984.56;;;9.75;87.85
72921;BME280;61064;51.654;5.476;2024-03-23T10:43:00;100981.81;;;9.63;87.71
72921;BME280;61064;51.654;5.476;2024-03-23T10:45:28;100980.78;;;9.55;87.72
72921;BME280;61064;51.654;5.476;2024-03-23T10:47:53;100978.81;;;9.39;87.93
72921;BME280;61064;51.654;5.476;2024-03-23T10:50:19;100986.81;;;9.42;88.03
72921;BME280;61064;51.654;5.476;2024-03-23T10:52:47;100983.19;;;9.34;87.88
72921;BME280;61064;51.654;5.476;2024-03-23T10:55:15;100986.66;;;9.30;88.70
72921;BME280;61064;51.654;5.476;2024-03-23T10:57:47;100985.84;;;9.34;88.34
72921;BME280;61064;51.654;5.476;2024-03-23T11:00:13;100960.22;;;9.36;88.88
72921;BME280;61064;51.654;5.476;2024-03-23T11:02:41;100979.94;;;9.56;88.35
72921;BME280;61064;51.654;5.476;2024-03-23T11:07:53;100973.97;;;9.77;87.89
72921;BME280;61064;51.654;5.476;2024-03-23T11:10:29;100994.38;;;9.81;87.05
72921;BME280;61064;51.654;5.476;2024-03-23T11:15:43;101006.13;;;9.29;86.29
72921;BME280;61064;51.654;5.476;2024-03-23T11:18:08;101013.50;;;8.91;87.51
72921;BME280;61064;51.654;5.476;2024-03-23T11:20:35;101010.41;;;8.63;88.25
72921;BME280;61064;51.654;5.476;2024-03-23T11:23:01;100990.47;;;8.34;89.18
72921;BME280;61064;51.654;5.476;2024-03-23T11:25:27;100991.13;;;8.24;89.68
72921;BME280;61064;51.654;5.476;2024-03-23T11:27:55;100989.09;;;8.11;90.07
72921;BME280;61064;51.654;5.476;2024-03-23T11:32:49;100995.22;;;8.07;90.56
72921;BME280;61064;51.654;5.476;2024-03-23T11:35:29;100993.50;;;8.10;90.73
72921;BME280;61064;51.654;5.476;2024-03-23T11:38:19;100991.09;;;8.22;91.21
72921;BME280;61064;51.654;5.476;2024-03-23T11:40:50;100988.91;;;8.47;91.61
72921;BME280;61064;51.654;5.476;2024-03-23T11:43:20;100989.34;;;8.72;91.46
72921;BME280;61064;51.654;5.476;2024-03-23T11:45:56;100979.09;;;8.95;91.02
72921;BME280;61064;51.654;5.476;2024-03-23T11:48:23;100981.28;;;9.25;90.96
72921;BME280;61064;51.654;5.476;2024-03-23T11:50:53;100978.91;;;9.45;89.37
72921;BME280;61064;51.654;5.476;2024-03-23T11:53:20;100973.41;;;9.30;88.56
72921;BME280;61064;51.654;5.476;2024-03-23T11:55:56;100973.16;;;9.13;88.70
72921;BME280;61064;51.654;5.476;2024-03-23T11:58:26;100964.72;;;8.83;88.60
72921;BME280;61064;51.654;5.476;2024-03-23T12:00:56;100977.88;;;8.75;89.27
72921;BME280;61064;51.654;5.476;2024-03-23T12:03:23;100984.78;;;8.65;89.18
72921;BME280;61064;51.654;5.476;2024-03-23T12:05:53;100978.59;;;8.63;90.00
72921;BME280;61064;51.654;5.476;2024-03-23T12:08:21;100971.50;;;8.62;90.51
72921;BME280;61064;51.654;5.476;2024-03-23T12:10:48;100959.44;;;8.83;90.64
72921;BME280;61064;51.654;5.476;2024-03-23T12:13:18;100947.34;;;9.01;89.50
72921;BME280;61064;51.654;5.476;2024-03-23T12:15:49;100966.44;;;9.39;89.76
72921;BME280;61064;51.654;5.476;2024-03-23T12:18:15;100945.41;;;9.56;88.53
72921;BME280;61064;51.654;5.476;2024-03-23T12:20:40;100942.97;;;9.74;88.17
72921;BME280;61064;51.654;5.476;2024-03-23T12:23:07;100958.94;;;9.79;87.31
72921;BME280;61064;51.654;5.476;2024-03-23T12:25:34;100930.56;;;9.73;86.69
72921;BME280;61064;51.654;5.476;2024-03-23T12:28:00;100945.66;;;9.77;86.64
72921;BME280;61064;51.654;5.476;2024-03-23T12:30:25;100961.56;;;9.74;86.28
72921;BME280;61064;51.654;5.476;2024-03-23T12:32:51;100972.94;;;9.63;85.89
72921;BME280;61064;51.654;5.476;2024-03-23T12:35:16;100953.00;;;9.27;85.63
72921;BME280;61064;51.654;5.476;2024-03-23T12:37:41;100948.94;;;8.90;86.41
72921;BME280;61064;51.654;5.476;2024-03-23T12:40:08;100961.78;;;8.63;87.87
72921;BME280;61064;51.654;5.476;2024-03-23T12:42:34;100948.13;;;8.39;88.51
72921;BME280;61064;51.654;5.476;2024-03-23T12:44:59;100960.44;;;8.35;89.23
72921;BME280;61064;51.654;5.476;2024-03-23T12:47:24;100940.78;;;8.25;89.51
72921;BME280;61064;51.654;5.476;2024-03-23T12:49:51;100970.91;;;8.29;90.01
72921;BME280;61064;51.654;5.476;2024-03-23T12:52:17;100961.19;;;8.29;90.04
72921;BME280;61064;51.654;5.476;2024-03-23T12:54:42;100947.97;;;8.31;90.07
72921;BME280;61064;51.654;5.476;2024-03-23T12:57:08;100964.84;;;8.34;89.70
72921;BME280;61064;51.654;5.476;2024-03-23T12:59:33;100981.59;;;8.33;89.42
72921;BME280;61064;51.654;5.476;2024-03-23T13:02:00;100988.47;;;8.25;89.48
72921;BME280;61064;51.654;5.476;2024-03-23T13:04:26;100975.03;;;8.13;89.71
72921;BME280;61064;51.654;5.476;2024-03-23T13:06:51;100960.63;;;7.99;89.67
72921;BME280;61064;51.654;5.476;2024-03-23T13:09:16;100962.13;;;7.85;89.91
72921;BME280;61064;51.654;5.476;2024-03-23T13:11:42;100961.94;;;7.76;90.33
72921;BME280;61064;51.654;5.476;2024-03-23T13:14:07;100956.38;;;7.64;90.89
72921;BME280;61064;51.654;5.476;2024-03-23T13:16:33;100949.19;;;7.55;91.17
72921;BME280;61064;51.654;5.476;2024-03-23T13:18:58;100959.00;;;7.61;92.02
72921;BME280;61064;51.654;5.476;2024-03-23T13:21:24;100942.41;;;7.71;91.93
72921;BME280;61064;51.654;5.476;2024-03-23T13:23:49;100962.34;;;7.96;91.98
72921;BME280;61064;51.654;5.476;2024-03-23T13:26:16;100946.59;;;8.05;91.96
72921;BME280;61064;51.654;5.476;2024-03-23T13:28:41;100971.75;;;8.28;91.54
72921;BME280;61064;51.654;5.476;2024-03-23T13:31:07;100970.16;;;8.34;91.48
72921;BME280;61064;51.654;5.476;2024-03-23T13:33:36;100960.44;;;8.35;91.07
72921;BME280;61064;51.654;5.476;2024-03-23T13:36:01;100963.97;;;8.37;90.53
72921;BME280;61064;51.654;5.476;2024-03-23T13:38:28;100961.22;;;8.31;90.60
72921;BME280;61064;51.654;5.476;2024-03-23T13:40:58;100954.16;;;8.31;90.94
72921;BME280;61064;51.654;5.476;2024-03-23T13:43:25;100941.66;;;8.26;90.81
72921;BME280;61064;51.654;5.476;2024-03-23T13:45:55;100946.06;;;8.24;90.60
72921;BME280;61064;51.654;5.476;2024-03-23T13:48:22;100921.03;;;8.07;90.71
72921;BME280;61064;51.654;5.476;2024-03-23T13:51:04;100921.81;;;8.01;90.66